Tucson, AZ

7:19 PM MST on August 30, 2014 (GMT -0700)
UA WRRC WEATHER | Change Station
CLOSE
Current Station
Personal Weather Station
Location: Tucson, AZ
Elevation: 2431 ft
Nearby Weather Stations

Elev 2431 ft 32.23 °N, 110.94 °W | Updated 7 minutes ago

Clear
Clear
98.0 °F
Feels Like 94 °F
N
3.0
Wind Variable Wind from WSW
Gusts 7.0 mph

Today
High -- | Low -- °F
--% Chance of Precip.
Yesterday
High -- | Low -- °F
Precip. -- in
5:57 AM 6:50 PM
Waxing Crescent, 26% visible
Pressure 29.69 in
Visibility 10.0 miles
Clouds Clear
Heat Index 94 °F
Dew Point 43 °F
Humidity 15%
Rainfall 0.00 in
Snow Depth Not available.
UV 0 out of 12
Pollen 6.60 out of 12
Air Quality Not available.
Flu Activity Not available.
METAR KDMA 310158Z AUTO VRB06KT 10SM CLR 35/05 A2983 RMK AO2 SLP054 T03530051 $

More Conditions Fewer Conditions

Pressure 29.69 in
Visibility 10.0 miles
Clouds Clear
Heat Index 94 °F
Dew Point 43 °F
Humidity 15%
Rainfall 0.00 in
Snow Depth Not available.
UV 0 out of 12
Pollen 6.60 out of 12
Air Quality Not available.
Flu Activity Not available.
METAR KDMA 310158Z AUTO VRB06KT 10SM CLR 35/05 A2983 RMK AO2 SLP054 T03530051 $

More Conditions Fewer Conditions

10-Day Weather Forecast

Almanac

Astronomy

Aug. 30, 2014 Rise Set
Actual Time 5:57 AM MST 6:50 PM MST
Civil Twilight 5:32 AM MST 7:15 PM MST
Nautical Twilight 5:03 AM MST 7:45 PM MST
Astronomical Twilight 4:32 AM MST 8:15 PM MST
Moon 10:30 AM MST (8/30) 9:46 PM MST (8/30)
Length of Visible Light 13h 42m
Length of Day
12h 52m
Tomorrow will be 1m 53s shorter.
Waxing Crescent, 26% of the Moon is Illuminated
Today
Waxing Crescent
Sep 2
First Quarter
Sep 8
Full
Sep 15
Last Quarter
Sep 24
New

Today's Extremes

State Highs State Lows

Community

WunderPhotos

Upload Photos

1,748,736 photos uploaded!

Nearby

Snow Depth

Station Depth Elevation
Workman Creek 1 in 6900 ft
Beaver Head 16 in 7990 ft

Earthquake Activity

City Distance Mag. Time & Date
No recent earthquake activity has been reported nearby.
Minimum magnitude displayed is 2.5.

Coastal Water Temperatures

Place Temperature
No Stations Reporting

Nearby Weather Stations